Time;durP1;ratioP1;P1;durP2;ratioP2;P2;SDS_P1;SDS_P2;PMS_P1;PMS_P2;Temp;Humidity;BMP_temperature;BMP_pressure;BME280_temperature;BME280_humidity;BME280_pressure;Samples;Min_cycle;Max_cycle;Signal;HPM_P1;HPM_P2
2022/06/10 00:00:52;;;;;;;5.57;1.25;;;;;;;15.67;71.11;101032.69;6160579;23;20037;-72
2022/06/10 00:03:18;;;;;;;5.95;1.27;;;;;;;15.63;71.93;101029.69;6134833;23;20016;-72
2022/06/10 00:05:47;;;;;;;5.28;1.05;;;;;;;15.62;70.91;101030.81;6160337;23;20076;-72
2022/06/10 00:08:15;;;;;;;5.00;1.10;;;;;;;15.55;71.15;101030.44;6160880;23;20005;-72
2022/06/10 00:10:41;;;;;;;5.97;1.10;;;;;;;15.53;71.60;101038.31;6160311;23;20061;-72
2022/06/10 00:13:06;;;;;;;4.70;1.17;;;;;;;15.52;71.78;101031.91;6160639;23;20366;-72
2022/06/10 00:15:32;;;;;;;6.43;1.23;;;;;;;15.46;71.68;101040.69;6160590;23;20084;-72
2022/06/10 00:17:58;;;;;;;5.30;1.38;;;;;;;15.43;71.28;101036.56;6160714;23;20033;-72
2022/06/10 00:20:25;;;;;;;3.95;1.20;;;;;;;15.37;72.16;101033.03;6134386;23;20013;-72
2022/06/10 00:22:51;;;;;;;4.78;1.20;;;;;;;15.36;72.36;101038.97;6160658;23;20009;-72
2022/06/10 00:25:17;;;;;;;5.93;1.42;;;;;;;15.33;72.22;101037.63;6159998;23;20015;-72
2022/06/10 00:27:43;;;;;;;5.20;1.30;;;;;;;15.30;72.49;101035.47;6160509;23;20005;-72
2022/06/10 00:30:09;;;;;;;7.07;1.58;;;;;;;15.25;72.12;101035.56;6160278;23;20014;-72
2022/06/10 00:32:34;;;;;;;3.50;1.02;;;;;;;15.24;72.44;101031.13;6134902;23;20485;-72
2022/06/10 00:35:00;;;;;;;5.53;1.60;;;;;;;15.21;72.40;101037.34;6134316;23;20021;-72
2022/06/10 00:37:25;;;;;;;6.10;1.30;;;;;;;15.17;72.34;101039.09;6160372;23;20070;-72
2022/06/10 00:39:51;;;;;;;7.07;1.52;;;;;;;15.15;73.17;101039.38;6160010;23;20059;-72
2022/06/10 00:42:16;;;;;;;4.05;1.15;;;;;;;15.12;72.99;101036.41;6160427;23;20010;-72
2022/06/10 00:44:44;;;;;;;6.50;1.70;;;;;;;15.07;72.68;101042.09;6160272;23;20041;-72
2022/06/10 00:47:19;;;;;;;5.07;1.38;;;;;;;15.05;72.78;101039.63;6160399;23;20010;-72
2022/06/10 00:50:22;;;;;;;3.75;1.23;;;;;;;15.01;72.89;101046.16;6109502;23;20665;-72
2022/06/10 00:52:50;;;;;;;6.07;1.70;;;;;;;15.00;73.49;101047.28;6122063;23;20064;-72
2022/06/10 00:55:16;;;;;;;4.30;1.15;;;;;;;14.98;72.79;101042.81;6109684;23;20005;-72
2022/06/10 00:57:44;;;;;;;7.00;1.70;;;;;;;14.96;73.29;101047.09;6134118;23;20009;-72
2022/06/10 01:00:11;;;;;;;4.35;1.23;;;;;;;14.95;73.33;101039.81;6134574;23;20009;-73
2022/06/10 01:02:36;;;;;;;6.45;1.20;;;;;;;14.95;73.17;101037.84;6160101;23;20334;-72
2022/06/10 01:05:09;;;;;;;4.50;1.20;;;;;;;14.95;73.57;101034.22;6159886;23;20013;-72
2022/06/10 01:07:35;;;;;;;;;;;;;;;14.94;74.16;101033.41;6160709;23;20009;-72
2022/06/10 01:10:06;;;;;;;6.70;1.52;;;;;;;14.95;74.32;101035.06;6133672;23;19995;-72
2022/06/10 01:12:57;;;;;;;6.38;1.33;;;;;;;14.97;74.77;101027.19;6109961;23;20014;-72
2022/06/10 01:15:31;;;;;;;6.93;1.48;;;;;;;14.97;74.36;101029.97;6160064;23;20005;-72
2022/06/10 01:18:21;;;;;;;4.65;1.50;;;;;;;14.98;75.00;101028.00;6160005;23;20037;-72
2022/06/10 01:20:57;;;;;;;4.18;1.30;;;;;;;15.02;75.41;101023.47;6134138;23;20006;-72
2022/06/10 01:23:51;;;;;;;4.80;1.27;;;;;;;15.04;76.03;101020.34;6133917;23;20028;-72
2022/06/10 01:27:47;;;;;;;4.40;1.10;;;;;;;15.05;75.45;101030.41;6155010;23;20017;-72
2022/06/10 01:29:55;;;;;;;6.63;1.40;;;;;;;15.09;77.27;101023.84;6139713;23;20362;-72
2022/06/10 01:32:43;;;;;;;5.18;1.55;;;;;;;15.13;77.24;101032.47;6159998;23;20013;-72
2022/06/10 01:35:18;;;;;;;6.97;1.40;;;;;;;15.15;78.03;101027.38;6151876;23;20509;-72
2022/06/10 01:37:58;;;;;;;6.20;1.60;;;;;;;15.16;79.13;101018.69;6133994;23;20018;-72
2022/06/10 01:40:26;;;;;;;8.10;1.63;;;;;;;15.19;77.34;101028.44;6159524;23;20343;-72
2022/06/10 01:43:23;;;;;;;5.97;1.90;;;;;;;15.22;79.37;101022.19;6159903;23;20006;-72
2022/06/10 01:46:05;;;;;;;5.40;1.52;;;;;;;15.26;79.64;101019.59;6134922;23;20009;-72
2022/06/10 01:48:55;;;;;;;7.82;2.03;;;;;;;15.25;79.12;101021.56;6133548;23;20453;-72
2022/06/10 01:51:45;;;;;;;6.13;1.83;;;;;;;15.29;79.60;101016.16;6159554;23;20006;-72
2022/06/10 01:54:16;;;;;;;4.15;1.40;;;;;;;15.33;80.23;101017.22;6122476;23;20312;-72
2022/06/10 01:56:46;;;;;;;8.13;1.27;;;;;;;15.33;79.58;101018.03;6134333;23;20063;-72
2022/06/10 01:59:18;;;;;;;6.43;1.40;;;;;;;15.36;79.42;101013.78;6109443;23;20002;-72
2022/06/10 02:01:47;;;;;;;8.88;1.77;;;;;;;15.37;79.97;101013.47;6134581;23;20009;-72
2022/06/10 02:04:19;;;;;;;6.35;1.55;;;;;;;15.39;79.84;101010.34;6133878;23;20426;-72
2022/06/10 02:06:51;;;;;;;7.03;1.75;;;;;;;15.41;79.93;101013.69;6133725;23;20076;-72
2022/06/10 02:09:19;;;;;;;4.47;1.30;;;;;;;15.44;79.43;101021.44;6108914;23;20083;-72
2022/06/10 02:11:48;;;;;;;5.70;1.45;;;;;;;15.45;79.89;101020.28;6182963;23;20061;-72
2022/06/10 02:14:16;;;;;;;5.20;1.50;;;;;;;15.47;80.13;101032.00;6109480;23;20008;-72
2022/06/10 02:16:43;;;;;;;6.65;1.40;;;;;;;15.49;80.26;101026.06;6109342;23;20427;-73
2022/06/10 02:19:19;;;;;;;3.85;1.33;;;;;;;15.50;80.02;101030.56;6109104;23;20010;-72
2022/06/10 02:21:54;;;;;;;5.50;1.40;;;;;;;15.51;80.08;101032.19;6159098;23;20029;-72
2022/06/10 02:24:25;;;;;;;3.95;1.30;;;;;;;15.53;81.06;101029.91;6132801;23;20012;-72
2022/06/10 02:26:51;;;;;;;9.73;1.48;;;;;;;15.54;81.42;101034.38;6159418;23;20013;-72
2022/06/10 02:29:25;;;;;;;6.03;1.60;;;;;;;15.54;80.46;101023.16;6133184;23;20076;-72
2022/06/10 02:31:54;;;;;;;5.95;1.70;;;;;;;15.56;81.24;101029.28;6159281;23;20005;-72
2022/06/10 02:34:20;;;;;;;5.43;1.38;;;;;;;15.59;80.55;101028.66;6109482;23;20009;-72
2022/06/10 02:37:07;;;;;;;3.40;1.27;;;;;;;15.59;80.66;101032.28;6108690;23;20013;-72
2022/06/10 02:39:47;;;;;;;5.05;1.45;;;;;;;15.58;80.34;101022.22;6158937;23;20013;-72
2022/06/10 02:42:27;;;;;;;8.27;1.63;;;;;;;15.59;80.87;101029.47;6133341;23;20017;-73
2022/06/10 02:45:11;;;;;;;5.93;1.42;;;;;;;15.63;81.11;101026.88;6133252;23;20009;-72
2022/06/10 02:47:44;;;;;;;7.45;1.63;;;;;;;15.63;81.74;101021.28;6135718;23;20060;-72
2022/06/10 02:50:10;;;;;;;5.45;1.48;;;;;;;15.63;81.64;101010.09;6132968;23;20006;-72
2022/06/10 02:52:36;;;;;;;4.30;1.33;;;;;;;15.65;81.23;101021.78;6108670;23;20344;-72
2022/06/10 02:55:03;;;;;;;4.65;1.55;;;;;;;15.65;81.48;101024.59;6158865;23;20012;-72
2022/06/10 03:03:15;;;;;;;6.70;1.88;;;;;;;15.65;80.14;101027.38;6136366;23;20326;-72
2022/06/10 03:05:46;;;;;;;;;;;;;;;15.67;82.42;101033.50;6135228;23;20002;-72
2022/06/10 03:08:23;;;;;;;5.35;1.85;;;;;;;15.67;82.51;101027.91;6133063;23;19980;-72
2022/06/10 03:11:12;;;;;;;7.07;2.00;;;;;;;15.68;82.13;101037.97;6158716;23;20338;-72
2022/06/10 03:13:53;;;;;;;6.10;2.05;;;;;;;15.69;82.06;101041.63;6136951;23;20374;-72
2022/06/10 03:16:46;;;;;;;8.43;1.67;;;;;;;15.69;81.58;101036.03;6133548;23;20029;-72
2022/06/10 03:19:20;;;;;;;3.90;1.40;;;;;;;15.70;82.55;101035.69;6159146;23;20005;-72
2022/06/10 03:22:09;;;;;;;5.28;1.55;;;;;;;15.71;83.11;101030.91;6132746;23;20013;-72
2022/06/10 03:24:35;;;;;;;5.00;1.48;;;;;;;15.71;82.23;101040.19;6134964;23;20009;-72
2022/06/10 03:27:13;;;;;;;4.70;1.40;;;;;;;15.70;80.90;101027.31;6159080;23;20092;-72
2022/06/10 03:29:47;;;;;;;7.97;1.75;;;;;;;15.72;79.81;101029.78;6103779;23;20053;-72
2022/06/10 03:32:19;;;;;;;3.25;1.50;;;;;;;15.71;80.00;101028.97;6129656;23;20010;-72
2022/06/10 03:34:46;;;;;;;6.90;1.60;;;;;;;15.72;80.26;101036.22;6154088;23;20010;-72
2022/06/10 03:37:12;;;;;;;5.88;2.15;;;;;;;15.70;80.46;101038.50;6154485;23;20084;-72
2022/06/10 03:39:39;;;;;;;6.47;1.83;;;;;;;15.70;80.48;101035.69;6129611;23;20443;-72
2022/06/10 03:42:14;;;;;;;6.57;1.80;;;;;;;15.72;80.11;101030.63;6154388;23;20002;-72
2022/06/10 03:44:39;;;;;;;4.97;1.60;;;;;;;15.72;80.06;101030.63;6131183;23;20010;-72
2022/06/10 03:47:06;;;;;;;7.10;1.83;;;;;;;15.73;80.03;101037.88;6153941;23;20006;-72
2022/06/10 03:49:38;;;;;;;5.65;1.83;;;;;;;15.72;79.94;101036.22;6131191;23;20467;-72
2022/06/10 03:52:04;;;;;;;6.07;1.63;;;;;;;15.72;80.82;101032.59;6177693;23;20017;-72
2022/06/10 03:54:29;;;;;;;5.20;1.70;;;;;;;15.71;80.68;101028.97;6130863;23;20407;-72
2022/06/10 03:56:55;;;;;;;7.22;2.03;;;;;;;15.69;80.58;101033.22;6131329;23;20017;-72
2022/06/10 03:59:20;;;;;;;3.25;1.40;;;;;;;15.68;80.46;101034.31;6131311;23;20006;-72
2022/06/10 04:01:46;;;;;;;4.68;1.50;;;;;;;15.67;79.36;101030.69;6131401;23;20017;-72
2022/06/10 04:04:11;;;;;;;8.38;2.22;;;;;;;15.65;79.80;101035.78;6131035;23;20014;-72
2022/06/10 04:06:37;;;;;;;5.05;2.13;;;;;;;15.64;80.08;101034.97;6129391;23;20009;-72
2022/06/10 04:09:06;;;;;;;4.57;1.45;;;;;;;15.64;78.89;101034.13;6130970;23;20006;-72
2022/06/10 04:11:32;;;;;;;4.68;1.70;;;;;;;15.62;79.77;101042.84;6131216;23;20009;-72
2022/06/10 04:13:57;;;;;;;5.15;1.60;;;;;;;15.59;79.78;101045.44;6129624;23;20016;-72
2022/06/10 04:16:23;;;;;;;4.60;1.40;;;;;;;15.59;79.84;101046.28;6131182;23;20013;-72
2022/06/10 04:18:48;;;;;;;5.57;1.80;;;;;;;15.58;79.95;101046.59;6131069;23;20010;-72
2022/06/10 04:21:14;;;;;;;5.55;1.65;;;;;;;15.56;79.87;101048.88;6131270;23;20327;-72
2022/06/10 04:23:39;;;;;;;6.28;1.70;;;;;;;15.54;79.56;101049.19;6130988;23;20014;-72
2022/06/10 04:26:04;;;;;;;5.53;1.58;;;;;;;15.56;80.73;101054.47;6153750;23;20006;-73
2022/06/10 04:28:30;;;;;;;4.10;1.30;;;;;;;15.56;80.72;101058.09;6130931;23;20443;-72
2022/06/10 04:30:55;;;;;;;6.13;1.60;;;;;;;15.57;81.20;101061.72;6178724;23;20406;-72
2022/06/10 04:33:21;;;;;;;6.93;1.55;;;;;;;15.55;80.59;101053.66;6130941;23;20132;-72
2022/06/10 04:35:48;;;;;;;4.40;1.48;;;;;;;15.55;80.82;101062.06;6129401;23;20065;-73
2022/06/10 04:38:14;;;;;;;4.38;1.30;;;;;;;15.57;80.48;101067.31;6131016;23;20006;-73
2022/06/10 04:40:40;;;;;;;5.32;1.75;;;;;;;15.58;81.08;101060.59;6130658;23;20010;-72
2022/06/10 04:43:06;;;;;;;5.78;1.83;;;;;;;15.59;80.38;101060.28;6130885;23;20014;-72
2022/06/10 04:45:44;;;;;;;4.82;1.50;;;;;;;15.61;81.31;101060.78;6129103;23;20014;-72
2022/06/10 04:48:11;;;;;;;7.75;1.80;;;;;;;15.65;81.06;101066.56;6154147;23;20687;-72
2022/06/10 04:50:36;;;;;;;7.10;1.65;;;;;;;15.62;80.88;101065.22;6130700;23;20010;-72
2022/06/10 04:53:02;;;;;;;6.80;1.58;;;;;;;15.63;82.34;101066.09;6130927;23;20416;-72
2022/06/10 04:55:27;;;;;;;6.90;1.75;;;;;;;15.66;83.19;101059.84;6130391;23;20006;-72
2022/06/10 04:57:54;;;;;;;3.67;1.73;;;;;;;15.68;82.00;101063.19;6178580;23;20006;-72
2022/06/10 05:00:34;;;;;;;3.38;1.50;;;;;;;15.70;81.97;101066.50;6130800;23;20037;-73
2022/06/10 05:03:00;;;;;;;6.95;1.80;;;;;;;15.68;81.78;101065.13;6130792;23;20013;-72
2022/06/10 05:05:25;;;;;;;5.55;1.60;;;;;;;15.71;82.09;101068.19;6178414;23;20049;-73
2022/06/10 05:07:51;;;;;;;6.15;1.83;;;;;;;15.74;82.95;101066.69;6130899;23;20396;-72
2022/06/10 05:10:16;;;;;;;5.03;1.58;;;;;;;15.76;82.92;101070.84;6128337;23;20010;-72
2022/06/10 05:12:44;;;;;;;7.03;1.60;;;;;;;15.77;82.06;101068.88;6130571;23;20014;-73
2022/06/10 05:15:14;;;;;;;4.32;1.73;;;;;;;15.79;82.00;101069.38;6129984;23;20034;-73
2022/06/10 05:17:40;;;;;;;6.88;1.50;;;;;;;15.79;84.19;101059.00;6130345;23;20006;-72
2022/06/10 05:20:06;;;;;;;4.00;1.30;;;;;;;15.81;82.27;101067.91;6128653;23;20016;-73
2022/06/10 05:22:31;;;;;;;6.65;1.75;;;;;;;15.86;82.84;101065.00;6130599;23;20009;-72
2022/06/10 05:24:57;;;;;;;7.75;1.75;;;;;;;15.87;83.28;101060.22;6177895;23;20017;-72
2022/06/10 05:27:23;;;;;;;5.80;1.67;;;;;;;15.90;83.79;101064.38;6130432;23;20032;-72
2022/06/10 05:29:48;;;;;;;4.97;1.55;;;;;;;15.94;85.22;101065.41;6178370;23;20462;-72
2022/06/10 05:32:14;;;;;;;4.55;1.65;;;;;;;15.96;82.89;101075.13;6130443;23;20068;-72
2022/06/10 05:34:45;;;;;;;5.45;1.52;;;;;;;15.96;82.79;101065.91;6128741;23;20010;-72
2022/06/10 05:37:12;;;;;;;3.22;1.25;;;;;;;16.01;83.22;101065.78;6130271;23;20069;-72
2022/06/10 05:39:38;;;;;;;6.10;1.70;;;;;;;16.03;85.53;101061.50;6130088;23;20088;-72
2022/06/10 05:42:04;;;;;;;5.38;1.63;;;;;;;16.06;84.48;101060.06;6130564;23;20010;-73
2022/06/10 05:44:30;;;;;;;6.13;1.35;;;;;;;16.09;86.70;101063.03;6130597;23;20010;-73
2022/06/10 05:46:56;;;;;;;5.30;1.73;;;;;;;16.14;86.74;101075.28;6129853;23;20447;-73
2022/06/10 05:49:22;;;;;;;5.43;1.50;;;;;;;16.19;89.83;101072.34;6130089;23;20006;-73
2022/06/10 05:51:47;;;;;;;5.72;1.40;;;;;;;16.23;89.71;101079.78;6130230;23;20009;-72
2022/06/10 05:54:13;;;;;;;5.03;1.65;;;;;;;16.27;89.18;101066.00;6128437;23;20018;-72
2022/06/10 05:56:40;;;;;;;5.35;1.90;;;;;;;16.33;90.28;101070.31;6129679;23;20006;-78
2022/06/10 05:59:06;;;;;;;5.53;2.05;;;;;;;16.36;88.89;101072.47;6128733;23;20018;-77
2022/06/10 06:01:31;;;;;;;3.47;1.70;;;;;;;16.42;89.12;101074.00;6153236;23;20060;-77
2022/06/10 06:03:57;;;;;;;5.45;1.83;;;;;;;16.48;89.25;101057.88;6128582;23;20014;-77
2022/06/10 06:06:22;;;;;;;4.20;1.65;;;;;;;16.56;90.67;101065.50;6152817;23;20017;-77
2022/06/10 06:08:48;;;;;;;4.53;1.80;;;;;;;16.64;90.74;101067.53;6153200;23;20061;-77
2022/06/10 06:11:15;;;;;;;3.38;1.70;;;;;;;16.73;89.46;101076.81;6129776;23;20014;-77
2022/06/10 06:13:40;;;;;;;4.53;1.50;;;;;;;16.83;90.97;101083.34;6130118;23;20006;-76
2022/06/10 06:16:06;;;;;;;4.15;1.52;;;;;;;16.90;87.72;101081.72;6153552;23;20033;-76
2022/06/10 06:18:31;;;;;;;5.32;1.63;;;;;;;17.00;88.54;101077.81;6153174;23;20332;-71
2022/06/10 06:20:57;;;;;;;4.85;1.48;;;;;;;17.08;88.28;101079.81;6128840;23;20021;-71
2022/06/10 06:23:22;;;;;;;4.35;1.30;;;;;;;17.16;88.96;101087.44;6128487;23;20037;-70
2022/06/10 06:25:48;;;;;;;4.57;1.20;;;;;;;17.22;85.88;101081.66;6127520;23;20020;-72
2022/06/10 06:28:14;;;;;;;2.95;1.50;;;;;;;17.29;86.29;101082.84;6128699;23;20424;-73
2022/06/10 06:30:40;;;;;;;3.75;1.52;;;;;;;17.34;88.92;101084.69;6152840;23;20042;-73
2022/06/10 06:33:07;;;;;;;4.10;1.40;;;;;;;17.40;88.09;101084.19;6128167;23;20516;-72
2022/06/10 06:35:33;;;;;;;3.67;1.50;;;;;;;17.47;86.91;101088.50;6128369;23;20037;-72
2022/06/10 06:37:58;;;;;;;3.08;1.25;;;;;;;17.50;87.09;101083.09;6103636;23;20037;-72
2022/06/10 06:40:24;;;;;;;1.92;1.38;;;;;;;17.56;87.85;101092.19;6153000;23;20395;-72
2022/06/10 06:42:50;;;;;;;4.78;1.50;;;;;;;17.61;89.90;101089.22;6128288;23;20013;-72
2022/06/10 06:45:16;;;;;;;3.63;1.40;;;;;;;17.65;90.38;101085.41;6128091;23;20025;-72
2022/06/10 06:47:41;;;;;;;1.95;1.38;;;;;;;17.70;89.74;101092.84;6127904;23;20010;-72
2022/06/10 06:50:08;;;;;;;2.38;1.33;;;;;;;17.73;89.50;101086.59;6152663;23;20020;-72
2022/06/10 06:52:34;;;;;;;2.90;1.30;;;;;;;17.78;87.61;101077.19;6127960;23;20042;-72
2022/06/10 06:54:59;;;;;;;3.33;1.70;;;;;;;17.85;88.11;101086.78;6128158;23;20006;-72
2022/06/10 06:57:26;;;;;;;4.53;1.60;;;;;;;17.91;85.55;101090.25;6177228;23;20021;-72
2022/06/10 06:59:53;;;;;;;3.03;1.80;;;;;;;18.00;87.82;101091.09;6128516;23;20504;-72
2022/06/10 07:02:19;;;;;;;2.45;1.40;;;;;;;18.08;87.15;101090.28;6152810;23;20024;-72
2022/06/10 07:04:45;;;;;;;2.10;1.40;;;;;;;18.20;85.89;101097.22;6127863;23;20006;-72
2022/06/10 07:07:10;;;;;;;5.57;2.38;;;;;;;18.31;89.12;101098.53;6127726;23;20436;-73
2022/06/10 07:09:35;;;;;;;4.35;2.70;;;;;;;18.42;91.09;101104.66;6103374;23;20033;-73
2022/06/10 07:12:01;;;;;;;2.40;2.17;;;;;;;18.51;90.39;101103.47;6103639;23;20436;-73
2022/06/10 07:14:26;;;;;;;4.25;2.30;;;;;;;18.62;90.06;101111.56;6152651;23;20037;-73
2022/06/10 07:16:52;;;;;;;4.30;2.40;;;;;;;18.73;90.50;101107.22;6152620;23;20006;-73
2022/06/10 07:19:19;;;;;;;5.13;2.30;;;;;;;18.83;90.54;101106.88;6177540;23;20009;-73
2022/06/10 07:21:44;;;;;;;3.67;2.33;;;;;;;18.93;90.93;101106.53;6152044;23;20033;-73
2022/06/10 07:24:10;;;;;;;4.82;1.83;;;;;;;19.04;89.22;101101.38;6151799;23;20479;-73
2022/06/10 07:26:35;;;;;;;3.55;1.85;;;;;;;19.14;88.64;101108.63;6129420;23;20439;-73
2022/06/10 07:29:01;;;;;;;3.45;1.88;;;;;;;19.24;88.68;101105.41;6133366;23;20026;-73
2022/06/10 07:31:26;;;;;;;3.35;1.60;;;;;;;19.35;89.26;101101.03;6108480;23;20101;-73
2022/06/10 07:33:52;;;;;;;2.45;1.92;;;;;;;19.45;87.54;101104.66;6060559;23;20017;-73
2022/06/10 07:36:17;;;;;;;5.07;2.30;;;;;;;19.50;89.62;101102.47;6108507;23;20009;-73
2022/06/10 07:38:43;;;;;;;3.53;2.00;;;;;;;19.60;88.45;101106.88;6108543;23;20009;-73
2022/06/10 07:43:52;;;;;;;3.15;2.10;;;;;;;19.72;88.05;101094.91;6136967;23;20006;-72
2022/06/10 07:46:19;;;;;;;4.53;2.33;;;;;;;19.81;87.54;101110.59;6108482;23;20446;-73
2022/06/10 07:48:45;;;;;;;3.80;2.40;;;;;;;19.85;87.07;101097.44;6084423;23;20001;-72
2022/06/10 07:51:10;;;;;;;4.15;2.50;;;;;;;19.95;86.58;101106.69;6084605;23;20016;-72
2022/06/10 07:53:36;;;;;;;3.55;1.90;;;;;;;20.02;85.85;101109.75;6084372;23;20017;-72
2022/06/10 07:56:01;;;;;;;2.58;2.00;;;;;;;20.10;86.06;101106.06;6108125;23;20005;-72
2022/06/10 07:58:29;;;;;;;4.45;1.92;;;;;;;20.16;86.75;101095.38;6108875;23;20438;-72
2022/06/10 08:00:55;;;;;;;3.45;1.45;;;;;;;20.24;85.79;101108.59;6109298;23;20081;-72
2022/06/10 08:03:20;;;;;;;3.42;1.52;;;;;;;20.33;84.71;101114.16;6132839;23;20044;-72
2022/06/10 08:05:46;;;;;;;3.22;1.52;;;;;;;20.41;84.44;101101.97;6084284;23;20017;-73
2022/06/10 08:08:15;;;;;;;3.10;1.42;;;;;;;20.51;84.61;101112.81;6132829;23;20497;-73
2022/06/10 08:10:41;;;;;;;2.75;1.15;;;;;;;20.61;83.42;101105.94;6108210;23;20013;-73
2022/06/10 08:13:06;;;;;;;4.40;1.20;;;;;;;20.71;83.00;101111.97;6108589;23;20013;-72
2022/06/10 08:15:32;;;;;;;2.65;1.30;;;;;;;20.79;82.48;101118.72;6108395;23;20002;-73
2022/06/10 08:17:58;;;;;;;3.17;1.20;;;;;;;20.86;81.92;101123.78;6108362;23;20006;-73
2022/06/10 08:23:16;;;;;;;3.80;1.23;;;;;;;20.93;81.11;101110.75;6118630;23;20005;-72
2022/06/10 08:25:41;;;;;;;3.05;1.00;;;;;;;20.97;80.74;101108.03;6134086;23;20021;-73
2022/06/10 08:28:07;;;;;;;2.72;1.10;;;;;;;20.96;81.61;101106.41;6160654;23;20014;-73
2022/06/10 08:30:33;;;;;;;3.28;1.10;;;;;;;20.96;82.12;101112.03;6110080;23;20013;-73
2022/06/10 08:32:59;;;;;;;1.92;0.90;;;;;;;20.93;81.53;101112.75;6110137;23;20115;-73
2022/06/10 08:35:25;;;;;;;1.73;0.68;;;;;;;20.90;81.67;101110.63;6110530;23;20009;-72
2022/06/10 08:37:50;;;;;;;2.13;0.80;;;;;;;20.87;81.27;101108.50;6134389;23;20052;-72
2022/06/10 08:40:52;;;;;;;2.58;0.60;;;;;;;20.82;82.69;101109.53;6061695;23;20084;-72
2022/06/10 08:43:55;;;;;;;1.20;0.45;;;;;;;20.82;83.59;101108.72;6125638;23;20009;-72
2022/06/10 08:46:50;;;;;;;1.60;0.50;;;;;;;20.90;83.10;101110.63;6134519;23;20327;-72
2022/06/10 08:49:40;;;;;;;2.25;0.43;;;;;;;21.04;82.52;101107.47;6109787;23;20100;-72
2022/06/10 08:52:30;;;;;;;0.88;0.40;;;;;;;21.16;81.04;101113.94;6109727;23;20029;-72
2022/06/10 08:55:05;;;;;;;1.13;0.40;;;;;;;21.24;80.02;101131.97;6085438;23;20013;-72
2022/06/10 08:57:41;;;;;;;1.35;0.32;;;;;;;21.27;79.37;101122.78;6160383;23;20013;-73
2022/06/10 09:00:19;;;;;;;1.77;0.40;;;;;;;21.33;78.72;101126.19;6109898;23;20014;-73
2022/06/10 09:03:01;;;;;;;1.10;0.40;;;;;;;21.33;77.90;101115.72;6134308;23;20497;-73
2022/06/10 09:05:29;;;;;;;1.40;0.20;;;;;;;21.34;77.37;101117.38;6112344;23;20113;-73
2022/06/10 09:07:58;;;;;;;0.98;0.50;;;;;;;21.38;77.39;101112.69;6134549;23;20606;-72
2022/06/10 09:10:34;;;;;;;2.22;0.45;;;;;;;21.37;77.11;101119.53;6133714;23;20029;-72
2022/06/10 09:13:11;;;;;;;0.82;0.30;;;;;;;21.46;77.42;101118.59;6135802;23;20435;-72
2022/06/10 09:15:49;;;;;;;0.43;0.30;;;;;;;21.50;76.80;101120.34;6110498;23;20485;-72
2022/06/10 09:18:40;;;;;;;1.05;0.40;;;;;;;21.58;76.16;101121.41;6111559;23;20005;-72
2022/06/10 09:21:11;;;;;;;0.40;0.30;;;;;;;21.67;75.57;101116.44;6090000;23;20008;-72
2022/06/10 09:23:40;;;;;;;1.25;0.40;;;;;;;21.79;75.86;101119.25;6109914;23;20005;-72
2022/06/10 09:26:10;;;;;;;1.17;0.40;;;;;;;21.95;77.19;101119.34;6109608;23;20045;-72
2022/06/10 09:28:39;;;;;;;1.25;0.30;;;;;;;22.18;74.71;101116.84;6086198;23;20006;-72
2022/06/10 09:31:28;;;;;;;1.58;0.40;;;;;;;22.49;73.35;101110.47;6104439;23;20022;-72
2022/06/10 09:34:02;;;;;;;0.60;0.30;;;;;;;22.77;72.05;101109.63;6127682;23;20018;-72
2022/06/10 09:36:42;;;;;;;0.73;0.38;;;;;;;23.03;70.93;101111.16;6152762;23;20006;-72
2022/06/10 09:42:25;;;;;;;1.08;0.22;;;;;;;23.62;69.05;101118.69;6129188;23;20085;-72
2022/06/10 09:45:00;;;;;;;0.40;0.15;;;;;;;23.83;65.78;101119.25;6152437;23;20032;-72
2022/06/10 09:47:55;;;;;;;0.20;0.10;;;;;;;24.05;64.72;101111.22;6152800;23;20029;-72
2022/06/10 09:50:39;;;;;;;0.75;0.10;;;;;;;24.17;63.29;101119.59;6150804;23;20040;-72
2022/06/10 09:53:30;;;;;;;0.63;0.17;;;;;;;24.29;63.58;101122.28;6130251;23;20009;-72
2022/06/10 09:56:33;;;;;;;2.05;0.10;;;;;;;24.33;63.70;101118.72;6176661;23;20086;-72
2022/06/10 09:59:27;;;;;;;0.32;0.00;;;;;;;24.44;62.99;101117.75;6130607;23;20468;-72
2022/06/10 10:01:56;;;;;;;0.85;0.10;;;;;;;24.48;62.69;101117.81;6130023;23;20510;-72
2022/06/10 10:04:39;;;;;;;0.82;0.20;;;;;;;24.50;62.67;101116.25;6129777;23;20025;-72
2022/06/10 10:07:28;;;;;;;0.90;0.20;;;;;;;24.56;63.39;101121.63;6128812;23;20060;-72
2022/06/10 10:09:54;;;;;;;1.13;0.10;;;;;;;24.61;63.54;101119.31;6125318;23;20003;-72
2022/06/10 10:12:28;;;;;;;0.73;0.20;;;;;;;24.72;64.24;101117.50;6130018;23;20017;-72
2022/06/10 10:15:13;;;;;;;0.60;0.30;;;;;;;24.85;63.52;101117.31;6128348;23;20024;-72
2022/06/10 10:17:55;;;;;;;2.55;0.70;;;;;;;24.98;63.02;101118.78;6150914;23;20006;-72
2022/06/10 10:20:23;;;;;;;0.25;0.20;;;;;;;25.11;62.44;101122.28;6151846;23;20432;-74
2022/06/10 10:23:22;;;;;;;2.03;0.30;;;;;;;25.21;61.82;101133.03;6176847;23;20010;-72
2022/06/10 10:25:48;;;;;;;1.83;0.30;;;;;;;25.26;61.46;101126.22;6118812;23;20343;-72
2022/06/10 10:28:20;;;;;;;0.90;0.20;;;;;;;25.26;60.07;101121.34;6152934;23;20038;-72
2022/06/10 10:30:59;;;;;;;1.88;0.30;;;;;;;25.29;60.52;101122.59;6152486;23;20624;-72
2022/06/10 10:33:24;;;;;;;0.50;0.30;;;;;;;25.27;60.57;101125.84;6126415;23;20026;-72
2022/06/10 10:35:52;;;;;;;0.93;0.40;;;;;;;25.28;60.34;101129.50;6103808;23;20014;-72
2022/06/10 10:38:32;;;;;;;1.77;0.45;;;;;;;25.31;60.51;101125.91;6152606;23;20002;-72
2022/06/10 10:40:57;;;;;;;3.15;0.30;;;;;;;25.31;60.97;101120.22;6176847;23;20153;-72
2022/06/10 10:43:24;;;;;;;1.80;0.43;;;;;;;25.37;59.94;101124.38;6152819;23;20014;-72
2022/06/10 10:46:04;;;;;;;1.23;0.30;;;;;;;25.41;59.60;101119.59;6152606;23;20501;-72
2022/06/10 10:48:44;;;;;;;0.95;0.43;;;;;;;25.47;57.78;101118.06;6126059;23;20010;-72
2022/06/10 10:51:09;;;;;;;1.52;0.40;;;;;;;25.51;57.36;101118.09;6152579;23;20006;-72
2022/06/10 10:53:38;;;;;;;1.00;0.30;;;;;;;25.55;58.63;101119.00;6129675;23;20439;-72
2022/06/10 10:56:03;;;;;;;0.63;0.35;;;;;;;25.56;57.61;101112.91;6152256;23;20006;-72
2022/06/10 10:58:47;;;;;;;1.40;0.30;;;;;;;25.61;57.65;101118.28;6152423;23;20006;-72
2022/06/10 11:01:43;;;;;;;2.10;0.38;;;;;;;25.66;58.09;101113.44;6150639;23;20001;-72
2022/06/10 11:04:01;;;;;;;0.47;0.20;;;;;;;25.63;56.79;101110.19;6148207;23;20010;-72
2022/06/10 11:06:29;;;;;;;1.58;0.20;;;;;;;25.62;58.69;101119.91;6152206;23;20020;-72
2022/06/10 11:09:19;;;;;;;1.17;0.30;;;;;;;25.74;58.59;101115.19;6152282;23;20018;-72
2022/06/10 11:11:45;;;;;;;2.15;0.28;;;;;;;25.82;58.31;101108.41;6170442;23;20006;-72
2022/06/10 11:14:23;;;;;;;0.40;0.10;;;;;;;25.95;58.11;101109.03;6177635;23;20006;-72
2022/06/10 11:17:11;;;;;;;1.25;0.30;;;;;;;26.08;57.92;101111.28;6126975;23;20085;-72
2022/06/10 11:19:37;;;;;;;2.58;0.30;;;;;;;26.25;58.30;101114.75;6129626;23;20024;-72
2022/06/10 11:22:02;;;;;;;0.35;0.20;;;;;;;26.31;56.16;101104.66;6129617;23;20010;-72
2022/06/10 11:24:30;;;;;;;1.38;0.20;;;;;;;26.44;55.86;101111.72;6129198;23;20014;-72
2022/06/10 11:26:59;;;;;;;0.30;0.13;;;;;;;26.58;56.12;101110.28;6152383;23;20017;-72
2022/06/10 11:29:25;;;;;;;1.05;0.20;;;;;;;26.73;55.74;101112.09;6127825;23;20026;-72
2022/06/10 11:32:01;;;;;;;1.77;0.20;;;;;;;26.86;55.36;101113.44;6152463;23;20470;-72
2022/06/10 11:34:29;;;;;;;0.68;0.20;;;;;;;26.99;55.05;101111.13;6127964;23;20428;-72
2022/06/10 11:36:55;;;;;;;1.10;0.30;;;;;;;27.07;53.66;101112.00;6129659;23;20084;-72
2022/06/10 11:39:27;;;;;;;1.80;0.30;;;;;;;27.13;53.68;101110.44;6103098;23;20014;-72
2022/06/10 11:42:07;;;;;;;2.07;0.20;;;;;;;27.06;52.97;101116.09;6127581;23;20012;-72
2022/06/10 11:44:33;;;;;;;0.52;0.25;;;;;;;27.00;53.59;101112.78;6129469;23;20014;-72
2022/06/10 11:47:06;;;;;;;0.68;0.20;;;;;;;26.91;53.59;101127.34;6152357;23;20017;-72
2022/06/10 11:49:40;;;;;;;0.08;0.00;;;;;;;26.74;52.89;101125.09;6175480;23;20020;-72
2022/06/10 11:52:17;;;;;;;1.23;0.28;;;;;;;26.64;53.68;101111.59;6127117;23;20006;-72
2022/06/10 11:55:14;;;;;;;1.17;0.15;;;;;;;26.57;54.26;101111.50;6104224;23;20010;-72
2022/06/10 12:00:49;;;;;;;0.60;0.20;;;;;;;26.47;55.75;101108.09;6179165;23;20030;-72
2022/06/10 12:03:23;;;;;;;0.70;0.40;;;;;;;26.48;56.12;101112.56;6127922;23;20005;-72